Terminal Aerodrome Forecast
Issued by NWS Portland, ME

Home | Current Version | Previous Version | Text Only | Print | Product List | Glossary On
Versions: 1 2 3 4 5 6 7 8 9 10 11 12 13 14 15 16 17 18 19 20 21 22 23 24 25 26
000
FTUS41 KGYX 180205 AAA
TAFCON
TAF AMD
KCON 180205Z 1802/1824 31004KT P6SM -SHSN SCT030 OVC040
      TEMPO 1802/1804 BKN020 OVC040
     FM180400 32004KT P6SM BKN040 BKN080
     FM180700 00000KT P6SM SCT250
     FM181400 31007KT P6SM SCT250=

USA.gov is the U.S. government's official web portal to all federal, state and local government web resources and services.